Time;durP1;ratioP1;P1;durP2;ratioP2;P2;SDS_P1;SDS_P2;PMS_P1;PMS_P2;Temp;Humidity;BMP_temperature;BMP_pressure;BME280_temperature;BME280_humidity;BME280_pressure;Samples;Min_cycle;Max_cycle;Signal;HPM_P1;HPM_P2
2021/06/13 05:01:19;;;;;;;5.07;3.22;;;;;;;-142.70;100.00;60390.16;5656499;23;144673;-73
2021/06/13 05:03:44;;;;;;;3.28;2.97;;;;;;;-142.70;100.00;60390.16;4870226;29;20033;-70
2021/06/13 05:06:10;;;;;;;3.60;2.90;;;;;;;-142.70;100.00;60390.16;4856526;29;20688;-70
2021/06/13 05:08:36;;;;;;;3.67;2.50;;;;;;;-142.70;100.00;60390.16;4873546;29;20154;-71
2021/06/13 05:11:01;;;;;;;3.45;3.15;;;;;;;-142.70;100.00;60390.16;4874380;29;20025;-71
2021/06/13 05:13:27;;;;;;;3.03;2.72;;;;;;;-142.70;100.00;60390.16;4887842;29;20066;-70
2021/06/13 05:15:52;;;;;;;3.30;3.00;;;;;;;-142.70;100.00;60390.16;4889704;29;20021;-72
2021/06/13 05:18:18;;;;;;;3.00;2.75;;;;;;;-142.70;100.00;60390.16;4875814;29;20033;-72
2021/06/13 05:20:44;;;;;;;2.95;2.58;;;;;;;-142.70;100.00;60390.16;4874446;29;20028;-75
2021/06/13 05:23:09;;;;;;;3.45;2.67;;;;;;;-142.70;100.00;60390.16;4889838;29;20482;-72
2021/06/13 05:25:36;;;;;;;3.03;2.70;;;;;;;-142.70;100.00;60390.16;4873216;29;20037;-73
2021/06/13 05:28:03;;;;;;;5.20;3.03;;;;;;;-142.70;100.00;60390.16;4890125;29;20037;-76
2021/06/13 05:30:29;;;;;;;4.00;2.90;;;;;;;-142.70;100.00;60390.16;4872820;29;20072;-74
2021/06/13 05:32:55;;;;;;;2.83;2.58;;;;;;;-142.70;100.00;60390.16;4889599;29;20030;-72
2021/06/13 05:35:21;;;;;;;4.05;2.75;;;;;;;-142.70;100.00;60390.16;4888183;29;20051;-72
2021/06/13 05:37:46;;;;;;;2.50;2.30;;;;;;;-142.70;100.00;60390.16;4873938;29;20021;-74
2021/06/13 05:40:12;;;;;;;3.78;2.60;;;;;;;-142.70;100.00;60390.16;4872583;29;20399;-75
2021/06/13 05:42:39;;;;;;;3.97;2.65;;;;;;;-142.70;100.00;60390.16;4857567;29;20529;-74
2021/06/13 05:45:06;;;;;;;3.42;2.80;;;;;;;-142.70;100.00;60390.16;4875018;29;20555;-74
2021/06/13 05:47:31;;;;;;;3.45;2.65;;;;;;;-142.70;100.00;60390.16;4873019;29;20060;-74
2021/06/13 05:49:57;;;;;;;3.03;2.83;;;;;;;-142.70;100.00;60390.16;4874029;29;20064;-74
2021/06/13 05:52:22;;;;;;;2.80;2.60;;;;;;;-142.70;100.00;60390.16;4874178;29;20040;-73
2021/06/13 05:54:47;;;;;;;5.00;2.85;;;;;;;-142.70;100.00;60390.16;4875015;29;20117;-73
2021/06/13 05:57:13;;;;;;;3.78;2.65;;;;;;;-142.70;100.00;60390.16;4873583;29;20025;-77
2021/06/13 05:59:39;;;;;;;2.75;2.55;;;;;;;-142.70;100.00;60390.16;4873310;29;20426;-74
2021/06/13 06:02:04;;;;;;;3.15;2.10;;;;;;;-142.70;100.00;60390.16;4842623;29;20056;-75
2021/06/13 06:04:29;;;;;;;2.38;1.98;;;;;;;-142.70;100.00;60390.16;4872845;29;20534;-75
2021/06/13 06:06:55;;;;;;;2.10;1.90;;;;;;;-142.70;100.00;60390.16;4858387;29;20444;-75
2021/06/13 06:09:20;;;;;;;2.22;2.08;;;;;;;-142.70;100.00;60390.16;4860799;29;20033;-74
2021/06/13 06:11:46;;;;;;;2.35;2.13;;;;;;;-142.70;100.00;60390.16;4873817;29;20439;-74
2021/06/13 06:14:12;;;;;;;2.33;2.22;;;;;;;-142.70;100.00;60390.16;4866604;29;20045;-74
2021/06/13 06:16:37;;;;;;;3.15;2.10;;;;;;;-142.70;100.00;60390.16;4857813;29;20025;-77
2021/06/13 06:19:03;;;;;;;2.58;2.17;;;;;;;-142.70;100.00;60390.16;4865861;29;20040;-77
2021/06/13 06:21:28;;;;;;;2.15;1.95;;;;;;;-142.70;100.00;60390.16;4865585;29;20115;-72
2021/06/13 06:23:54;;;;;;;2.03;1.92;;;;;;;-142.70;100.00;60390.16;4885362;29;20037;-76
2021/06/13 06:26:20;;;;;;;2.40;2.15;;;;;;;-142.70;100.00;60390.16;4882389;29;20176;-76
2021/06/13 06:28:46;;;;;;;2.28;2.08;;;;;;;-142.70;100.00;60390.16;4882069;29;20021;-77
2021/06/13 06:31:12;;;;;;;2.40;2.20;;;;;;;-142.70;100.00;60390.16;4882259;29;20024;-74
2021/06/13 06:33:37;;;;;;;2.40;2.22;;;;;;;-142.70;100.00;60390.16;4888924;29;20025;-74
2021/06/13 06:36:03;;;;;;;2.70;2.40;;;;;;;-142.70;100.00;60390.16;4905733;29;20119;-76
2021/06/13 06:38:30;;;;;;;2.42;2.22;;;;;;;-142.70;100.00;60390.16;4888539;29;20026;-75
2021/06/13 06:40:58;;;;;;;2.08;1.98;;;;;;;-142.70;100.00;60390.16;4883998;29;20024;-70
2021/06/13 06:43:23;;;;;;;3.20;2.20;;;;;;;-142.70;100.00;60390.16;4886428;29;20037;-73
2021/06/13 06:45:49;;;;;;;2.58;2.38;;;;;;;-142.70;100.00;60390.16;4863017;29;20025;-73
2021/06/13 06:48:14;;;;;;;2.80;2.53;;;;;;;-142.70;100.00;60390.16;4883201;29;20064;-71
2021/06/13 06:50:40;;;;;;;2.60;2.40;;;;;;;-142.70;100.00;60390.16;4877049;29;20520;-69
2021/06/13 06:53:05;;;;;;;3.15;2.42;;;;;;;-142.70;100.00;60390.16;4873518;29;20029;-73
2021/06/13 06:55:31;;;;;;;4.53;2.53;;;;;;;-142.70;100.00;60390.16;4860725;29;20045;-74
2021/06/13 06:57:56;;;;;;;2.40;2.20;;;;;;;-142.70;100.00;60390.16;4881960;29;20093;-75
2021/06/13 07:00:22;;;;;;;2.88;2.60;;;;;;;-142.70;100.00;60390.16;4882778;29;20032;-73
2021/06/13 07:02:47;;;;;;;3.80;2.08;;;;;;;-142.70;100.00;60390.16;4875715;29;20066;-70
2021/06/13 07:05:13;;;;;;;2.72;1.90;;;;;;;-142.70;100.00;60390.16;4863664;29;20404;-73
2021/06/13 07:07:39;;;;;;;2.35;2.15;;;;;;;-142.70;100.00;60390.16;4871658;29;20037;-71
2021/06/13 07:10:04;;;;;;;2.25;1.85;;;;;;;-142.70;100.00;60390.16;4871862;29;20052;-73
2021/06/13 07:12:30;;;;;;;2.38;1.98;;;;;;;-142.70;100.00;60390.16;4883154;29;20040;-71
2021/06/13 07:14:56;;;;;;;2.10;1.95;;;;;;;-142.70;100.00;60390.16;4865403;29;20036;-72
2021/06/13 07:17:21;;;;;;;2.42;2.20;;;;;;;-142.70;100.00;60390.16;4882057;29;20057;-72
2021/06/13 07:19:47;;;;;;;2.60;2.10;;;;;;;-142.70;100.00;60390.16;4867755;29;20471;-70
2021/06/13 07:22:12;;;;;;;2.50;2.30;;;;;;;-142.70;100.00;60390.16;4846202;29;20404;-70
2021/06/13 07:24:38;;;;;;;3.20;2.60;;;;;;;-142.70;100.00;60390.16;4870495;29;20048;-73
2021/06/13 07:27:03;;;;;;;3.10;2.65;;;;;;;-142.70;100.00;60390.16;4875374;29;20029;-70
2021/06/13 07:29:29;;;;;;;3.10;2.90;;;;;;;-142.70;100.00;60390.16;4874716;29;20032;-71
2021/06/13 07:31:55;;;;;;;3.33;2.92;;;;;;;-142.70;100.00;60390.16;4873944;29;20036;-69
2021/06/13 07:34:20;;;;;;;3.20;2.95;;;;;;;-142.70;100.00;60390.16;4858599;29;20069;-69
2021/06/13 07:36:46;;;;;;;3.70;2.47;;;;;;;-142.70;100.00;60390.16;4872089;29;20041;-70
2021/06/13 07:39:11;;;;;;;3.00;2.70;;;;;;;-142.70;100.00;60390.16;4858094;29;20040;-69
2021/06/13 07:41:36;;;;;;;7.38;3.47;;;;;;;-142.70;100.00;60390.16;4858875;29;20040;-70
2021/06/13 07:44:02;;;;;;;3.60;3.20;;;;;;;-142.70;100.00;60390.16;4873028;29;20057;-69
2021/06/13 07:46:28;;;;;;;3.35;3.05;;;;;;;-142.70;100.00;60390.16;4874985;29;20407;-69
2021/06/13 07:48:53;;;;;;;3.80;3.25;;;;;;;-142.70;100.00;60390.16;4858620;29;20036;-71
2021/06/13 07:51:19;;;;;;;3.65;3.35;;;;;;;-142.70;100.00;60390.16;4874201;29;20463;-71
2021/06/13 07:53:44;;;;;;;3.88;3.38;;;;;;;-142.70;100.00;60390.16;4858088;29;20598;-69
2021/06/13 07:56:11;;;;;;;3.92;3.63;;;;;;;-142.70;100.00;60390.16;4857933;29;20040;-72
2021/06/13 07:58:36;;;;;;;3.95;3.65;;;;;;;-142.70;100.00;60390.16;4872812;29;20025;-70
2021/06/13 08:01:02;;;;;;;4.93;4.43;;;;;;;-142.70;100.00;60390.16;4873139;29;20498;-69
2021/06/13 08:03:27;;;;;;;5.53;5.03;;;;;;;-142.70;100.00;60390.16;4874456;29;20387;-72
2021/06/13 08:05:53;;;;;;;6.53;5.88;;;;;;;-142.70;100.00;60390.16;4858038;29;20025;-71
2021/06/13 08:08:18;;;;;;;4.13;3.72;;;;;;;-142.70;100.00;60390.16;4858673;29;20033;-72
2021/06/13 08:10:44;;;;;;;4.00;3.65;;;;;;;-142.70;100.00;60390.16;4873511;29;20033;-71
2021/06/13 08:13:09;;;;;;;4.57;3.67;;;;;;;-142.70;100.00;60390.16;4858066;29;20041;-72
2021/06/13 08:15:35;;;;;;;3.47;3.13;;;;;;;-142.70;100.00;60390.16;4873925;29;20440;-68
2021/06/13 08:18:00;;;;;;;4.22;3.83;;;;;;;-142.70;100.00;60390.16;4873087;29;20096;-71
2021/06/13 08:20:26;;;;;;;4.18;3.88;;;;;;;-142.70;100.00;60390.16;4874574;29;20036;-70
2021/06/13 08:22:52;;;;;;;4.10;3.60;;;;;;;-142.70;100.00;60390.16;4878859;29;20033;-71
2021/06/13 08:25:17;;;;;;;4.47;4.07;;;;;;;-142.70;100.00;60390.16;4873272;29;20108;-69
2021/06/13 08:27:43;;;;;;;4.30;3.90;;;;;;;-142.70;100.00;60390.16;4857541;29;20116;-68
2021/06/13 08:30:10;;;;;;;3.28;2.95;;;;;;;-142.70;100.00;60390.16;4873197;29;20116;-73
2021/06/13 08:32:35;;;;;;;3.85;3.03;;;;;;;-142.70;100.00;60390.16;4862127;29;20029;-73
2021/06/13 08:35:01;;;;;;;3.40;3.20;;;;;;;-142.70;100.00;60390.16;4876370;29;20590;-72
2021/06/13 08:37:27;;;;;;;4.07;3.70;;;;;;;-142.70;100.00;60390.16;4861202;29;20487;-69
2021/06/13 08:39:52;;;;;;;3.47;3.17;;;;;;;-142.70;100.00;60390.16;4879942;29;20451;-70
2021/06/13 08:42:18;;;;;;;5.63;3.85;;;;;;;-142.70;100.00;60390.16;4875070;29;20033;-68
2021/06/13 08:44:44;;;;;;;4.03;3.72;;;;;;;-142.70;100.00;60390.16;4852331;29;20036;-72
2021/06/13 08:47:12;;;;;;;4.07;3.65;;;;;;;-142.70;100.00;60390.16;4858043;29;20082;-71
2021/06/13 08:49:37;;;;;;;4.97;4.05;;;;;;;-142.70;100.00;60390.16;4857819;29;20051;-73
2021/06/13 08:52:04;;;;;;;4.75;4.25;;;;;;;-142.70;100.00;60390.16;4874379;29;20060;-75
2021/06/13 08:54:30;;;;;;;4.50;4.00;;;;;;;-142.70;100.00;60390.16;4857187;29;20044;-69
2021/06/13 08:56:55;;;;;;;4.95;4.30;;;;;;;-142.70;100.00;60390.16;4872913;29;20029;-74
2021/06/13 08:59:21;;;;;;;3.70;3.40;;;;;;;-142.70;100.00;60390.16;4872988;29;20029;-70
2021/06/13 09:01:46;;;;;;;4.10;3.80;;;;;;;-142.70;100.00;60390.16;4856552;29;20104;-73
2021/06/13 09:04:12;;;;;;;4.85;4.45;;;;;;;-142.70;100.00;60390.16;4872975;29;20040;-69
2021/06/13 09:06:37;;;;;;;3.75;3.45;;;;;;;-142.70;100.00;60390.16;4872635;29;20033;-68
2021/06/13 09:09:33;;;;;;;6.25;4.60;;;;;;;-142.70;100.00;60390.16;4872816;29;20029;-70
2021/06/13 09:12:01;;;;;;;5.88;5.30;;;;;;;-142.70;100.00;60390.16;4860061;29;20044;-69
2021/06/13 09:14:31;;;;;;;5.68;5.18;;;;;;;-142.70;100.00;60390.16;4837526;29;20040;-68
2021/06/13 09:16:56;;;;;;;5.70;5.10;;;;;;;-142.70;100.00;60390.16;4856020;29;20022;-72
2021/06/13 09:19:22;;;;;;;5.65;4.88;;;;;;;-142.70;100.00;60390.16;4854740;29;20029;-72
2021/06/13 09:21:47;;;;;;;5.63;5.13;;;;;;;-142.70;100.00;60390.16;4872828;29;20049;-68
2021/06/13 09:24:19;;;;;;;6.00;5.50;;;;;;;-142.70;100.00;60390.16;4873651;29;20037;-71
2021/06/13 09:26:45;;;;;;;6.45;5.95;;;;;;;-142.70;100.00;60390.16;4872435;29;20499;-69
2021/06/13 09:29:10;;;;;;;6.30;5.78;;;;;;;-142.70;100.00;60390.16;4872515;29;20029;-69
2021/06/13 09:31:37;;;;;;;5.78;5.22;;;;;;;-142.70;100.00;60390.16;4856073;29;20029;-69
2021/06/13 09:34:05;;;;;;;6.53;5.65;;;;;;;-142.70;100.00;60390.16;4857440;29;20060;-68
2021/06/13 09:36:32;;;;;;;7.00;6.30;;;;;;;-142.70;100.00;60390.16;4856603;29;20081;-71
2021/06/13 09:39:01;;;;;;;6.75;6.15;;;;;;;-142.70;100.00;60390.16;4872100;29;20495;-72
2021/06/13 09:41:27;;;;;;;6.07;5.57;;;;;;;-142.70;100.00;60390.16;4871842;29;20036;-69
2021/06/13 09:43:57;;;;;;;6.07;5.57;;;;;;;-142.70;100.00;60390.16;4857395;29;20029;-75
2021/06/13 09:46:30;;;;;;;6.10;5.60;;;;;;;-142.70;100.00;60390.16;4841798;29;20510;-70
2021/06/13 09:49:04;;;;;;;6.28;5.78;;;;;;;-142.70;100.00;60390.16;4870132;29;20060;-71
2021/06/13 09:51:35;;;;;;;6.22;5.72;;;;;;;-142.70;100.00;60390.16;4851779;29;20041;-70
2021/06/13 09:54:04;;;;;;;5.93;5.32;;;;;;;-142.70;100.00;60390.16;4856998;29;20060;-72
2021/06/13 09:56:36;;;;;;;;;;;;;;;-142.70;100.00;60390.16;4865319;29;20586;-76
2021/06/13 09:59:06;;;;;;;4.40;4.10;;;;;;;-142.70;100.00;60390.16;4872904;29;20781;-69
2021/06/13 10:01:43;;;;;;;;;;;;;;;-142.70;100.00;60390.16;4894345;29;20084;-70
2021/06/13 10:04:30;;;;;;;4.40;4.00;;;;;;;-142.70;100.00;60390.16;4877316;29;19927;-72
2021/06/13 10:07:02;;;;;;;4.80;4.07;;;;;;;-142.70;100.00;60390.16;4878528;29;20396;-68
2021/06/13 10:09:39;;;;;;;4.93;4.43;;;;;;;-142.70;100.00;60390.16;4865118;29;20184;-74
2021/06/13 10:12:06;;;;;;;4.93;4.53;;;;;;;-142.70;100.00;60390.16;4868794;29;20032;-71
2021/06/13 10:14:32;;;;;;;4.43;4.13;;;;;;;-142.70;100.00;60390.16;4877133;29;20071;-72
2021/06/13 10:16:57;;;;;;;4.95;4.55;;;;;;;-142.70;100.00;60390.16;4867432;29;20516;-70
2021/06/13 10:19:27;;;;;;;6.47;4.32;;;;;;;-142.70;100.00;60390.16;4877072;29;20043;-70
2021/06/13 10:22:02;;;;;;;4.15;3.85;;;;;;;-142.70;100.00;60390.16;4862126;29;20048;-71
2021/06/13 10:24:35;;;;;;;4.63;3.40;;;;;;;-142.70;100.00;60390.16;4878020;29;20032;-73
2021/06/13 10:27:07;;;;;;;3.30;3.00;;;;;;;-142.70;100.00;60390.16;4894703;29;20048;-71
2021/06/13 10:29:35;;;;;;;3.13;2.88;;;;;;;-142.70;100.00;60390.16;4874092;29;20037;-69
2021/06/13 10:32:04;;;;;;;3.20;2.90;;;;;;;-142.70;100.00;60390.16;4881586;29;21053;-71
2021/06/13 10:34:30;;;;;;;3.28;3.08;;;;;;;-142.70;100.00;60390.16;4859479;29;20088;-70
2021/06/13 10:36:58;;;;;;;2.80;2.58;;;;;;;-142.70;100.00;60390.16;4861406;29;20044;-71
2021/06/13 10:39:25;;;;;;;3.25;3.00;;;;;;;-142.70;100.00;60390.16;4884850;29;20069;-70
2021/06/13 10:41:51;;;;;;;2.63;2.40;;;;;;;-142.70;100.00;60390.16;4881179;29;20025;-70
2021/06/13 10:44:18;;;;;;;3.40;3.10;;;;;;;-142.70;100.00;60390.16;4866237;29;20025;-69
2021/06/13 10:46:48;;;;;;;3.30;3.00;;;;;;;-142.70;100.00;60390.16;4865403;29;20092;-70
2021/06/13 10:49:30;;;;;;;3.75;3.10;;;;;;;-142.70;100.00;60390.16;4896700;29;20585;-70
2021/06/13 10:52:04;;;;;;;3.22;2.92;;;;;;;-142.70;100.00;60390.16;4880584;29;20036;-70
2021/06/13 10:54:37;;;;;;;3.42;3.13;;;;;;;-142.70;100.00;60390.16;4878657;29;20049;-70
2021/06/13 10:57:05;;;;;;;4.53;2.78;;;;;;;-142.70;100.00;60390.16;4894636;29;20056;-70
2021/06/13 10:59:41;;;;;;;3.35;3.15;;;;;;;-142.70;100.00;60390.16;4879260;29;20028;-70
2021/06/13 11:02:14;;;;;;;3.17;2.88;;;;;;;-142.70;100.00;60390.16;4864284;29;20103;-71
2021/06/13 11:05:03;;;;;;;3.10;2.75;;;;;;;-142.70;100.00;60390.16;4874307;29;20029;-69
2021/06/13 11:07:35;;;;;;;;;;;;;;;-142.70;100.00;60390.16;4873365;29;20033;-70
2021/06/13 11:10:19;;;;;;;2.78;2.58;;;;;;;-142.70;100.00;60390.16;4870287;29;19948;-72
2021/06/13 11:12:48;;;;;;;3.03;2.83;;;;;;;-142.70;100.00;60390.16;4866514;29;20033;-69
2021/06/13 11:15:42;;;;;;;3.05;2.85;;;;;;;-142.70;100.00;60390.16;4866229;29;20149;-69
2021/06/13 11:18:16;;;;;;;3.22;2.92;;;;;;;-142.70;100.00;60390.16;4844297;29;20045;-72
2021/06/13 11:23:23;;;;;;;3.95;3.08;;;;;;;-142.70;100.00;60390.16;4886820;29;20104;-76
2021/06/13 11:25:52;;;;;;;2.95;2.67;;;;;;;-142.70;100.00;60390.16;4866465;29;20034;-68
2021/06/13 11:28:33;;;;;;;2.88;2.67;;;;;;;-142.70;100.00;60390.16;4851848;29;20574;-70
2021/06/13 11:31:08;;;;;;;2.53;2.33;;;;;;;-142.70;100.00;60390.16;4869505;29;20044;-70
2021/06/13 11:33:44;;;;;;;2.55;2.33;;;;;;;-142.70;100.00;60390.16;4868045;29;20025;-68
2021/06/13 11:36:15;;;;;;;2.85;2.65;;;;;;;-142.70;100.00;60390.16;4878252;29;20465;-70
2021/06/13 11:39:04;;;;;;;2.95;2.70;;;;;;;-142.70;100.00;60390.16;4869573;29;20494;-71
2021/06/13 11:41:45;;;;;;;2.75;2.55;;;;;;;-142.70;100.00;60390.16;4852792;29;20053;-70
2021/06/13 11:44:20;;;;;;;2.58;2.38;;;;;;;-142.70;100.00;60390.16;4868743;29;20029;-69
2021/06/13 11:46:52;;;;;;;2.47;2.28;;;;;;;-142.70;100.00;60390.16;4850274;29;20044;-69
2021/06/13 11:49:19;;;;;;;3.05;2.85;;;;;;;-142.70;100.00;60390.16;4864565;29;20068;-71
2021/06/13 11:51:48;;;;;;;2.30;2.10;;;;;;;-142.70;100.00;60390.16;4871079;29;20080;-69
2021/06/13 11:54:31;;;;;;;2.40;2.25;;;;;;;-142.70;100.00;60390.16;4871881;29;20037;-70
2021/06/13 11:56:57;;;;;;;2.53;2.33;;;;;;;-142.70;100.00;60390.16;4871314;29;20422;-71
2021/06/13 11:59:23;;;;;;;6.88;2.15;;;;;;;-142.70;100.00;60390.16;4846735;29;20028;-67
2021/06/13 12:01:53;;;;;;;1.80;1.70;;;;;;;-142.70;100.00;60390.16;4864139;29;20049;-69
2021/06/13 12:04:19;;;;;;;1.90;1.80;;;;;;;-142.70;100.00;60390.16;4858716;29;20535;-70
2021/06/13 12:06:45;;;;;;;2.03;1.90;;;;;;;-142.70;100.00;60390.16;4867942;29;20081;-70
2021/06/13 12:09:12;;;;;;;2.10;2.00;;;;;;;-142.70;100.00;60390.16;4866684;29;20029;-69
2021/06/13 12:11:56;;;;;;;2.25;1.88;;;;;;;-142.70;100.00;60390.16;4856596;29;20179;-69
2021/06/13 12:14:38;;;;;;;1.73;1.63;;;;;;;-142.70;100.00;60390.16;4871953;29;20080;-70
2021/06/13 12:17:20;;;;;;;10.00;1.90;;;;;;;-142.70;100.00;60390.16;4872359;29;20052;-70
2021/06/13 12:19:50;;;;;;;1.75;1.65;;;;;;;-142.70;100.00;60390.16;4855337;29;20072;-72
2021/06/13 12:22:18;;;;;;;1.77;1.50;;;;;;;-142.70;100.00;60390.16;4861322;29;20530;-69
2021/06/13 12:27:24;;;;;;;2.03;1.73;;;;;;;-142.70;100.00;60390.16;4861032;29;20082;-71
2021/06/13 12:29:50;;;;;;;;;;;;;;;-142.70;100.00;60390.16;4864814;29;20052;-70
2021/06/13 12:32:16;;;;;;;1.90;1.80;;;;;;;-142.70;100.00;60390.16;4876955;29;19916;-71
2021/06/13 12:34:42;;;;;;;5.15;2.30;;;;;;;-142.70;100.00;60390.16;4872155;29;20083;-70
2021/06/13 12:37:15;;;;;;;2.63;2.42;;;;;;;-142.70;100.00;60390.16;4848645;29;20124;-69
2021/06/13 12:39:40;;;;;;;5.05;2.40;;;;;;;-142.70;100.00;60390.16;4887321;29;20519;-71
2021/06/13 12:42:10;;;;;;;4.53;2.90;;;;;;;-142.70;100.00;60390.16;4871549;29;20025;-74
2021/06/13 12:44:36;;;;;;;3.05;1.67;;;;;;;-142.70;100.00;60390.16;4871758;29;20104;-69
2021/06/13 12:47:03;;;;;;;3.05;2.55;;;;;;;-142.70;100.00;60390.16;4865301;29;20052;-70
2021/06/13 12:49:38;;;;;;;9.32;3.50;;;;;;;-142.70;100.00;60390.16;4870048;29;20029;-69
2021/06/13 12:52:14;;;;;;;11.30;3.42;;;;;;;-142.70;100.00;60390.16;4871626;29;20032;-68
2021/06/13 12:54:41;;;;;;;5.72;3.92;;;;;;;-142.70;100.00;60390.16;4866664;29;20085;-69
2021/06/13 12:57:06;;;;;;;9.25;6.30;;;;;;;-142.70;100.00;60390.16;4871436;29;20037;-72
2021/06/13 12:59:36;;;;;;;2.53;2.33;;;;;;;-142.70;100.00;60390.16;4855563;29;20041;-70
2021/06/13 13:02:06;;;;;;;2.00;1.80;;;;;;;-142.70;100.00;60390.16;4886804;29;20057;-70
2021/06/13 13:04:54;;;;;;;1.60;1.50;;;;;;;-142.70;100.00;60390.16;4871045;29;20185;-69
2021/06/13 13:07:29;;;;;;;2.10;1.90;;;;;;;-142.70;100.00;60390.16;4871560;29;20037;-70
2021/06/13 13:10:15;;;;;;;1.77;1.67;;;;;;;-142.70;100.00;60390.16;4864280;29;20450;-70
2021/06/13 13:12:51;;;;;;;1.80;1.70;;;;;;;-142.70;100.00;60390.16;4868407;29;20094;-68
2021/06/13 13:15:29;;;;;;;1.67;1.55;;;;;;;-142.70;100.00;60390.16;4859308;29;20037;-69
2021/06/13 13:18:16;;;;;;;2.33;1.87;;;;;;;-142.70;100.00;60390.16;4839285;29;20032;-70
2021/06/13 13:21:01;;;;;;;1.70;1.60;;;;;;;-142.70;100.00;60390.16;4873446;29;20106;-70
2021/06/13 13:23:27;;;;;;;1.98;1.88;;;;;;;-142.70;100.00;60390.16;4862192;29;20052;-70
2021/06/13 13:26:00;;;;;;;2.88;1.88;;;;;;;-142.70;100.00;60390.16;4847731;29;20033;-69
2021/06/13 13:28:33;;;;;;;2.17;1.98;;;;;;;-142.70;100.00;60390.16;4870515;29;20064;-70
2021/06/13 13:31:17;;;;;;;6.00;2.80;;;;;;;-142.70;100.00;60390.16;4871136;29;20061;-68
2021/06/13 13:33:52;;;;;;;4.40;2.25;;;;;;;-142.70;100.00;60390.16;4852695;29;20749;-67
2021/06/13 13:36:40;;;;;;;4.20;3.55;;;;;;;-142.70;100.00;60390.16;4852746;29;20036;-69
2021/06/13 13:39:09;;;;;;;4.32;2.53;;;;;;;-142.70;100.00;60390.16;4852134;29;20029;-69
2021/06/13 13:41:39;;;;;;;3.63;2.25;;;;;;;-142.70;100.00;60390.16;4862613;29;20081;-72
2021/06/13 13:44:11;;;;;;;2.35;2.17;;;;;;;-142.70;100.00;60390.16;4870355;29;20041;-68
2021/06/13 13:46:39;;;;;;;2.83;2.58;;;;;;;-142.70;100.00;60390.16;4870773;29;20059;-70
2021/06/13 14:12:51;;;;;;;3.33;3.05;;;;;;;21.41;60.81;94606.53;5093835;27;20130;-67
2021/06/13 14:15:16;;;;;;;5.50;3.50;;;;;;;21.16;60.01;94599.09;5058602;28;20485;-72
2021/06/13 14:17:42;;;;;;;3.40;3.20;;;;;;;21.05;59.33;94599.97;5051477;28;20084;-71
2021/06/13 14:20:08;;;;;;;4.38;3.67;;;;;;;21.47;59.54;94605.53;5053262;28;20529;-68
2021/06/13 14:22:33;;;;;;;3.83;3.53;;;;;;;21.62;59.09;94613.59;5056366;28;20028;-69
2021/06/13 14:24:59;;;;;;;3.70;3.40;;;;;;;21.43;57.84;94617.59;5053921;28;20078;-70
2021/06/13 14:27:24;;;;;;;4.38;3.97;;;;;;;21.29;57.76;94614.53;5056305;28;20025;-70
2021/06/13 14:29:50;;;;;;;3.80;3.30;;;;;;;20.88;57.61;94618.44;5053760;28;20120;-70
2021/06/13 14:32:15;;;;;;;5.18;3.60;;;;;;;20.69;58.92;94611.84;5052968;28;20497;-71
2021/06/13 14:34:40;;;;;;;4.28;3.97;;;;;;;20.80;59.57;94612.81;5032262;28;20025;-72
2021/06/13 14:37:06;;;;;;;4.72;4.20;;;;;;;20.85;58.31;94615.50;5043835;28;20021;-71
2021/06/13 14:39:31;;;;;;;4.20;3.83;;;;;;;20.91;58.96;94617.16;5056091;28;20037;-70
2021/06/13 14:41:57;;;;;;;5.85;3.97;;;;;;;20.89;58.58;94616.63;5054863;28;20033;-71
2021/06/13 14:44:22;;;;;;;3.92;3.63;;;;;;;20.74;58.69;94616.41;5042731;28;20126;-72
2021/06/13 14:46:48;;;;;;;4.45;4.05;;;;;;;20.71;58.95;94612.41;5044853;28;20029;-71
2021/06/13 14:49:13;;;;;;;6.90;4.50;;;;;;;20.57;58.51;94615.63;5059695;28;20032;-73
2021/06/13 14:51:39;;;;;;;4.90;4.50;;;;;;;20.09;59.45;94616.94;5029755;28;20035;-72
2021/06/13 14:54:04;;;;;;;4.40;4.05;;;;;;;19.91;59.61;94623.19;5045654;28;20025;-73
2021/06/13 14:56:30;;;;;;;6.13;4.57;;;;;;;19.67;60.52;94618.28;5062068;28;20021;-73
2021/06/13 14:58:55;;;;;;;4.95;4.47;;;;;;;19.62;61.26;94618.19;5063034;28;20036;-72
2021/06/13 15:01:21;;;;;;;4.05;3.75;;;;;;;19.43;61.16;94622.81;5058658;28;20025;-70
2021/06/13 15:03:46;;;;;;;4.88;4.35;;;;;;;19.39;62.05;94629.56;5054191;28;20394;-71
2021/06/13 15:06:15;;;;;;;5.10;4.70;;;;;;;19.35;62.81;94629.22;5053334;28;20033;-72
2021/06/13 15:08:42;;;;;;;5.18;4.75;;;;;;;19.19;63.02;94635.19;5043909;28;20060;-71
2021/06/13 15:11:08;;;;;;;4.45;4.15;;;;;;;18.98;63.29;94633.16;5051373;28;20091;-71
2021/06/13 15:13:34;;;;;;;4.60;4.30;;;;;;;18.87;63.78;94640.03;5041162;28;20018;-72
2021/06/13 15:15:59;;;;;;;4.25;3.88;;;;;;;18.83;63.83;94646.75;5036887;28;20096;-70
2021/06/13 15:18:26;;;;;;;4.63;4.15;;;;;;;18.79;63.50;94644.81;5037526;28;20051;-71
2021/06/13 15:20:51;;;;;;;4.05;3.67;;;;;;;18.66;63.06;94650.28;5034237;28;20025;-69
2021/06/13 15:23:17;;;;;;;4.25;3.85;;;;;;;18.53;63.64;94661.78;5034492;28;20051;-71
2021/06/13 15:25:43;;;;;;;9.38;3.90;;;;;;;18.44;63.88;94671.00;5047329;28;20037;-70
2021/06/13 15:28:08;;;;;;;5.30;3.78;;;;;;;18.29;66.61;94668.81;5027501;28;20052;-68
2021/06/13 15:30:34;;;;;;;4.88;4.47;;;;;;;17.97;69.78;94706.78;5042875;28;20655;-69
2021/06/13 15:32:59;;;;;;;5.90;2.97;;;;;;;17.38;72.24;94712.69;5046327;28;20029;-68
2021/06/13 15:35:26;;;;;;;2.03;1.90;;;;;;;17.00;73.92;94699.81;5035390;28;20017;-67
2021/06/13 15:37:52;;;;;;;2.13;1.92;;;;;;;16.67;76.05;94705.34;5027574;28;20026;-65
2021/06/13 15:40:17;;;;;;;2.45;1.85;;;;;;;16.55;77.16;94707.03;5031116;28;20029;-69
2021/06/13 15:42:43;;;;;;;2.55;1.92;;;;;;;16.57;77.86;94702.38;5025310;28;20051;-66
2021/06/13 15:45:09;;;;;;;2.55;2.35;;;;;;;16.57;78.19;94702.38;5034683;28;20037;-63
2021/06/13 15:47:35;;;;;;;5.88;2.50;;;;;;;16.48;79.56;94700.22;5038532;28;20515;-68
2021/06/13 15:50:01;;;;;;;2.50;2.30;;;;;;;16.42;79.19;94691.44;5028092;28;20053;-67
2021/06/13 15:52:28;;;;;;;2.80;2.58;;;;;;;16.43;80.13;94687.00;5028758;28;20136;-66
2021/06/13 15:54:54;;;;;;;2.67;2.47;;;;;;;16.55;80.19;94693.97;5043815;28;20028;-67
2021/06/13 15:57:20;;;;;;;2.60;2.40;;;;;;;16.48;80.16;94684.53;5041668;28;20528;-67
2021/06/13 15:59:48;;;;;;;2.55;2.35;;;;;;;16.43;80.45;94679.16;5039296;28;20528;-66
2021/06/13 16:02:16;;;;;;;2.50;2.30;;;;;;;16.38;80.49;94665.91;5037204;28;20037;-65
2021/06/13 16:04:42;;;;;;;2.67;2.33;;;;;;;16.48;81.21;94687.16;5040530;28;20082;-66
2021/06/13 16:07:08;;;;;;;2.88;2.58;;;;;;;16.51;80.35;94694.56;5038845;28;20024;-65
2021/06/13 16:09:34;;;;;;;3.05;2.72;;;;;;;16.43;80.95;94698.25;5042498;28;20025;-67
2021/06/13 16:12:01;;;;;;;5.28;3.25;;;;;;;16.38;81.24;94689.44;5043460;28;20399;-65
2021/06/13 16:14:27;;;;;;;2.60;2.40;;;;;;;16.41;81.83;94696.88;5024948;28;20997;-66
2021/06/13 16:16:52;;;;;;;2.83;2.60;;;;;;;16.51;82.14;94695.38;5041965;28;20029;-66
2021/06/13 16:19:18;;;;;;;3.35;3.05;;;;;;;16.72;82.86;94695.03;5042892;28;20033;-67
2021/06/13 16:21:43;;;;;;;2.95;2.65;;;;;;;16.84;81.03;94688.09;5038747;28;20037;-66
2021/06/13 16:24:09;;;;;;;3.00;2.80;;;;;;;16.88;81.36;94696.31;5039109;28;20482;-65
2021/06/13 16:26:34;;;;;;;3.42;3.13;;;;;;;16.78;81.29;94696.00;5040514;28;20029;-67
2021/06/13 16:29:00;;;;;;;4.38;3.97;;;;;;;17.00;82.31;94699.81;5036414;28;20044;-66
2021/06/13 16:31:25;;;;;;;3.88;3.50;;;;;;;17.16;81.03;94701.84;5035734;28;20590;-66
2021/06/13 16:33:51;;;;;;;3.80;3.50;;;;;;;17.16;80.44;94704.47;5028616;28;20036;-66
2021/06/13 16:36:16;;;;;;;8.77;3.83;;;;;;;17.16;80.32;94704.47;5035578;28;20460;-67
2021/06/13 16:38:41;;;;;;;3.35;3.05;;;;;;;16.67;79.42;94697.47;5037696;28;20028;-67
2021/06/13 16:41:07;;;;;;;3.60;2.85;;;;;;;16.42;80.07;94701.88;5043240;28;20029;-68
2021/06/13 16:43:32;;;;;;;3.42;3.08;;;;;;;16.04;81.49;94688.06;5047093;28;20031;-70
2021/06/13 16:45:58;;;;;;;3.83;3.40;;;;;;;15.94;82.39;94695.56;5041289;28;20068;-67
2021/06/13 16:48:23;;;;;;;4.65;4.10;;;;;;;16.01;83.33;94704.16;5035844;28;20032;-68
2021/06/13 16:50:49;;;;;;;4.63;4.05;;;;;;;16.01;82.83;94699.75;5039823;28;20597;-69